Terminal Aerodrome Forecast
Issued by NWS Oklahoma City, OK

Home | Current Version | Previous Version | Text Only | Print | Product List | Glossary On
Versions: 1 2 3 4 5 6 7 8 9 10 11 12 13 14 15 16 17 18 19 20 21 22 23 24 25 26
000
FTUS44 KOUN 201720
TAFOUN
TAF
KOUN 201720Z 2018/2118 35007KT P6SM BKN011
     FM202300 26007KT P6SM BKN050 BKN120
     FM210200 08004KT P6SM SCT250
      TEMPO 2111/2114 4SM BR SCT008
     FM211400 12006KT P6SM BKN025=

USA.gov is the U.S. government's official web portal to all federal, state and local government web resources and services.